createdAt,value
2022-11-20T00:01:21.449Z,101649.22
2022-11-20T00:03:48.140Z,101653.28
2022-11-20T00:06:17.300Z,101652.97
2022-11-20T00:08:44.134Z,101654.84
2022-11-20T00:11:16.869Z,101653.47
2022-11-20T00:13:44.627Z,101655.94
2022-11-20T00:16:13.275Z,101653.38
2022-11-20T00:18:39.821Z,101656.88
2022-11-20T00:21:10.760Z,101652.22
2022-11-20T00:23:37.121Z,101651.44
2022-11-20T00:26:07.873Z,101642.75
2022-11-20T00:28:35.003Z,101652.28
2022-11-20T00:31:09.922Z,101653.16
2022-11-20T00:33:36.365Z,101658.75
2022-11-20T00:36:07.939Z,101646.94
2022-11-20T00:38:35.066Z,101645.81
2022-11-20T00:41:04.103Z,101648.63
2022-11-20T00:43:30.537Z,101651.44
2022-11-20T00:46:01.073Z,101620.63
2022-11-20T00:48:27.698Z,101632.28
2022-11-20T00:50:55.028Z,101633.22
2022-11-20T00:53:21.779Z,101629.59
2022-11-20T00:56:10.713Z,101636.47
2022-11-20T00:58:39.167Z,101636.47
2022-11-20T01:01:07.430Z,101629.66
2022-11-20T01:03:39.583Z,101634.84
2022-11-20T01:06:15.239Z,101633.81
2022-11-20T01:08:43.069Z,101637.50
2022-11-20T01:11:24.917Z,101629.66
2022-11-20T01:13:52.716Z,101634.22
2022-11-20T01:16:22.430Z,101643.84
2022-11-20T01:18:51.117Z,101640.13
2022-11-20T01:21:20.653Z,101634.09
2022-11-20T01:23:48.730Z,101630.19
2022-11-20T01:26:18.279Z,101618.75
2022-11-20T01:28:44.838Z,101609.72
2022-11-20T01:31:31.732Z,101610.78
2022-11-20T01:34:00.164Z,101602.59
2022-11-20T01:36:30.699Z,101597.06
2022-11-20T01:39:00.248Z,101603.94
2022-11-20T01:41:47.821Z,101592.88
2022-11-20T01:44:16.976Z,101583.69
2022-11-20T01:46:57.565Z,101584.44
2022-11-20T01:49:53.227Z,101583.09
2022-11-20T01:52:43.802Z,101588.38
2022-11-20T01:55:18.952Z,101587.94
2022-11-20T01:57:46.799Z,101586.75
2022-11-20T02:00:16.598Z,101586.03
2022-11-20T02:02:49.436Z,101591.00
2022-11-20T02:05:24.113Z,101587.25
2022-11-20T02:07:51.376Z,101578.41
2022-11-20T02:10:17.949Z,101568.00
2022-11-20T02:13:03.044Z,101567.34
2022-11-20T02:15:30.525Z,101563.06
2022-11-20T02:17:57.396Z,101569.81
2022-11-20T02:20:23.767Z,101561.72
2022-11-20T02:23:00.715Z,101569.13
2022-11-20T02:25:29.684Z,101556.59
2022-11-20T02:27:56.937Z,101563.75
2022-11-20T02:30:23.294Z,101553.22
2022-11-20T02:32:49.671Z,101530.88
2022-11-20T02:35:18.974Z,101549.25
2022-11-20T02:37:48.538Z,101557.13
2022-11-20T02:40:15.212Z,101561.56
2022-11-20T02:42:41.566Z,101549.94
2022-11-20T02:45:08.641Z,101561.78
2022-11-20T02:47:35.102Z,101559.66
2022-11-20T02:50:01.476Z,101551.16
2022-11-20T02:52:27.880Z,101553.38
2022-11-20T02:54:54.303Z,101561.00
2022-11-20T02:57:20.690Z,101552.78
2022-11-20T02:59:47.106Z,101550.47
2022-11-20T03:02:13.454Z,101534.47
2022-11-20T03:04:39.804Z,101538.03
2022-11-20T03:07:06.871Z,101533.69
2022-11-20T03:09:33.325Z,101533.25
2022-11-20T03:11:59.693Z,101531.91
2022-11-20T03:14:26.039Z,101542.47
2022-11-20T03:16:52.410Z,101532.31
2022-11-20T03:19:19.265Z,101529.97
2022-11-20T03:21:46.003Z,101528.47
2022-11-20T03:24:13.133Z,101517.06
2022-11-20T03:26:40.037Z,101517.22
2022-11-20T03:29:06.490Z,101516.25
2022-11-20T03:31:35.879Z,101523.53
2022-11-20T03:34:03.300Z,101521.84
2022-11-20T03:36:30.322Z,101515.53
2022-11-20T03:38:57.701Z,101513.72
2022-11-20T03:41:26.781Z,101509.22
2022-11-20T03:43:58.613Z,101507.00
2022-11-20T03:46:25.796Z,101515.13
2022-11-20T03:48:52.421Z,101521.91
2022-11-20T03:51:27.227Z,101504.97
2022-11-20T03:53:56.247Z,101506.66
2022-11-20T03:56:32.891Z,101484.25
2022-11-20T03:58:59.464Z,101476.59
2022-11-20T04:01:28.685Z,101480.25
2022-11-20T04:03:57.063Z,101479.03
2022-11-20T04:06:29.539Z,101479.25
2022-11-20T04:08:57.510Z,101476.69
2022-11-20T04:11:29.889Z,101478.59
2022-11-20T04:14:01.659Z,101471.75
2022-11-20T04:16:31.371Z,101485.53
2022-11-20T04:19:00.169Z,101477.53
2022-11-20T04:21:27.728Z,101475.94
2022-11-20T04:23:54.529Z,101476.88
2022-11-20T04:26:22.200Z,101471.31
2022-11-20T04:28:48.636Z,101473.31
2022-11-20T04:31:17.890Z,101468.59
2022-11-20T04:33:44.585Z,101469.53
2022-11-20T04:36:14.006Z,101465.25
2022-11-20T04:38:40.890Z,101470.38
2022-11-20T04:41:10.858Z,101471.13
2022-11-20T04:43:37.328Z,101458.97
2022-11-20T04:46:03.696Z,101468.59
2022-11-20T04:48:30.938Z,101429.88
2022-11-20T04:50:57.714Z,101440.44
2022-11-20T04:53:24.815Z,101461.53
2022-11-20T04:55:51.184Z,101456.91
2022-11-20T04:58:17.901Z,101458.69
2022-11-20T05:00:44.247Z,101451.63
2022-11-20T05:03:10.600Z,101458.59
2022-11-20T05:05:37.050Z,101443.13
2022-11-20T05:08:03.569Z,101441.13
2022-11-20T05:10:29.910Z,101449.75
2022-11-20T05:12:57.765Z,101446.16
2022-11-20T05:15:24.233Z,101443.78
2022-11-20T05:17:52.199Z,101450.31
2022-11-20T05:20:19.548Z,101437.97
2022-11-20T05:22:46.400Z,101437.78
2022-11-20T05:25:13.468Z,101430.31
2022-11-20T05:27:40.090Z,101424.69
2022-11-20T05:30:07.371Z,101428.81
2022-11-20T05:32:33.750Z,101429.84
2022-11-20T05:35:00.109Z,101421.19
2022-11-20T05:37:26.460Z,101421.84
2022-11-20T05:39:53.529Z,101429.97
2022-11-20T05:42:32.093Z,101420.41
2022-11-20T05:45:03.533Z,101425.63
2022-11-20T05:47:34.149Z,101425.03
2022-11-20T05:50:00.764Z,101427.88
2022-11-20T05:52:30.802Z,101409.38
2022-11-20T05:54:57.623Z,101419.84
2022-11-20T05:57:24.010Z,101412.47
2022-11-20T05:59:50.346Z,101411.06
2022-11-20T06:02:16.977Z,101417.22
2022-11-20T06:04:43.369Z,101413.44
2022-11-20T06:07:09.820Z,101418.81
2022-11-20T06:09:37.137Z,101414.66
2022-11-20T06:12:03.690Z,101413.53
2022-11-20T06:14:30.080Z,101414.19
2022-11-20T06:16:56.521Z,101413.34
2022-11-20T06:19:23.125Z,101414.97
2022-11-20T06:21:53.098Z,101416.53
2022-11-20T06:24:19.522Z,101410.63
2022-11-20T06:26:46.099Z,101413.16
2022-11-20T06:29:12.742Z,101420.91
2022-11-20T06:31:39.230Z,101415.63
2022-11-20T06:34:07.127Z,101405.53
2022-11-20T06:36:34.223Z,101415.63
2022-11-20T06:39:01.382Z,101415.63
2022-11-20T06:41:28.883Z,101412.22
2022-11-20T06:43:55.587Z,101423.63
2022-11-20T06:46:22.549Z,101418.06
2022-11-20T06:48:50.287Z,101417.88
2022-11-20T06:51:17.450Z,101393.34
2022-11-20T06:53:43.958Z,101413.75
2022-11-20T06:56:10.426Z,101408.94
2022-11-20T06:58:37.491Z,101406.94
2022-11-20T07:01:09.901Z,101378.25
2022-11-20T07:03:36.670Z,101408.25
2022-11-20T07:06:04.111Z,101411.19
2022-11-20T07:08:31.065Z,101417.81
2022-11-20T07:11:02.957Z,101400.06
2022-11-20T07:13:30.016Z,101401.75
2022-11-20T07:15:59.798Z,101390.44
2022-11-20T07:18:26.135Z,101384.41
2022-11-20T07:20:52.473Z,101392.97
2022-11-20T07:23:18.897Z,101396.19
2022-11-20T07:25:45.232Z,101394.97
2022-11-20T07:28:11.642Z,101396.19
2022-11-20T07:30:38.829Z,101397.16
2022-11-20T07:33:05.175Z,101395.91
2022-11-20T07:35:31.578Z,101397.88
2022-11-20T07:37:57.966Z,101406.50
2022-11-20T07:40:24.349Z,101400.31
2022-11-20T07:42:51.748Z,101399.13
2022-11-20T07:45:18.939Z,101390.91
2022-11-20T07:47:45.348Z,101396.00
2022-11-20T07:50:12.382Z,101391.84
2022-11-20T07:52:39.023Z,101377.50
2022-11-20T07:55:06.084Z,101390.59
2022-11-20T07:57:32.479Z,101386.38
2022-11-20T07:59:58.891Z,101393.94
2022-11-20T08:02:25.277Z,101386.84
2022-11-20T08:04:51.687Z,101386.72
2022-11-20T08:07:18.075Z,101386.56
2022-11-20T08:09:44.482Z,101384.22
2022-11-20T08:12:38.080Z,101394.47
2022-11-20T08:15:11.323Z,101385.06
2022-11-20T08:17:39.402Z,101371.25
2022-11-20T08:20:06.054Z,101381.44
2022-11-20T08:22:32.849Z,101390.22
2022-11-20T08:24:59.345Z,101390.84
2022-11-20T08:27:25.704Z,101385.88
2022-11-20T08:29:52.061Z,101385.78
2022-11-20T08:32:18.617Z,101394.63
2022-11-20T08:34:45.017Z,101396.91
2022-11-20T08:37:11.369Z,101406.91
2022-11-20T08:39:37.709Z,101401.03
2022-11-20T08:42:07.897Z,101400.47
2022-11-20T08:44:34.230Z,101402.72
2022-11-20T08:47:01.526Z,101405.16
2022-11-20T08:49:27.924Z,101403.28
2022-11-20T08:51:56.080Z,101404.97
2022-11-20T08:54:23.526Z,101405.44
2022-11-20T08:56:49.945Z,101395.03
2022-11-20T08:59:43.743Z,101415.09
2022-11-20T09:02:02.834Z,101397.91
2022-11-20T09:04:29.498Z,101401.56
2022-11-20T09:06:55.854Z,101395.72
2022-11-20T09:09:22.568Z,101408.97
2022-11-20T09:11:50.823Z,101402.19
2022-11-20T09:14:17.284Z,101397.81
2022-11-20T09:16:45.961Z,101392.19
2022-11-20T09:24:45.790Z,101366.31
2022-11-20T09:27:12.180Z,101379.03
2022-11-20T09:29:38.526Z,101376.03
2022-11-20T09:32:05.266Z,101352.44
2022-11-20T09:34:31.634Z,101381.31
2022-11-20T09:37:01.527Z,101375.53
2022-11-20T09:39:30.921Z,101379.72
2022-11-20T09:42:33.428Z,101370.97
2022-11-20T09:45:12.054Z,101368.31
2022-11-20T09:48:18.965Z,101352.25
2022-11-20T09:51:17.917Z,101370.66
2022-11-20T09:53:44.560Z,101369.50
2022-11-20T09:56:15.954Z,101333.72
2022-11-20T09:58:49.970Z,101368.78
2022-11-20T10:01:19.369Z,101365.59
2022-11-20T10:04:05.598Z,101370.91
2022-11-20T10:06:42.770Z,101362.72
2022-11-20T10:09:11.872Z,101370.69
2022-11-20T10:11:53.440Z,101372.78
2022-11-20T10:14:44.600Z,101375.38
2022-11-20T10:17:20.003Z,101366.56
2022-11-20T10:20:09.555Z,101367.84
2022-11-20T10:22:54.664Z,101366.47
2022-11-20T10:25:25.292Z,101358.94
2022-11-20T10:28:16.410Z,101355.00
2022-11-20T10:30:44.957Z,101350.59
2022-11-20T10:33:22.576Z,101335.22
2022-11-20T10:35:56.414Z,101340.19
2022-11-20T10:38:30.255Z,101329.59
2022-11-20T10:41:20.536Z,101309.69
2022-11-20T10:43:51.730Z,101330.13
2022-11-20T10:46:23.701Z,101322.41
2022-11-20T10:48:51.002Z,101289.53
2022-11-20T10:51:35.068Z,101310.78
2022-11-20T10:54:28.775Z,101303.31
2022-11-20T10:57:03.431Z,101296.25
2022-11-20T10:59:42.298Z,101300.75
2022-11-20T11:02:21.242Z,101297.34
2022-11-20T11:04:51.435Z,101290.09
2022-11-20T11:07:24.792Z,101289.28
2022-11-20T11:09:56.717Z,101291.31
2022-11-20T11:12:25.606Z,101296.44
2022-11-20T11:14:54.387Z,101290.81
2022-11-20T11:17:28.287Z,101290.06
2022-11-20T11:20:06.002Z,101291.81
2022-11-20T11:22:35.316Z,101281.25
2022-11-20T11:25:02.370Z,101272.50
2022-11-20T11:27:28.745Z,101272.47
2022-11-20T11:30:15.038Z,101273.97
2022-11-20T11:32:41.428Z,101254.22
2022-11-20T11:35:21.313Z,101257.75
2022-11-20T11:37:48.881Z,101251.72
2022-11-20T11:40:23.838Z,101252.69
2022-11-20T11:42:56.462Z,101255.34
2022-11-20T11:45:23.231Z,101252.75
2022-11-20T11:47:49.809Z,101245.34
2022-11-20T11:50:22.403Z,101236.41
2022-11-20T11:53:15.666Z,101236.50
2022-11-20T11:55:55.492Z,101234.03
2022-11-20T11:58:43.952Z,101233.19
2022-11-20T12:01:29.044Z,101235.53
2022-11-20T12:04:12.057Z,101233.16
2022-11-20T12:06:43.628Z,101224.47
2022-11-20T12:09:11.946Z,101230.19
2022-11-20T12:11:41.054Z,101233.47
2022-11-20T12:14:24.827Z,101221.75
2022-11-20T12:16:53.724Z,101213.19
2022-11-20T12:19:20.594Z,101213.69
2022-11-20T12:22:01.484Z,101200.16
2022-11-20T12:24:37.396Z,101201.97
2022-11-20T12:27:40.401Z,101194.97
2022-11-20T12:30:21.212Z,101192.63
2022-11-20T12:33:06.549Z,101189.66
2022-11-20T12:35:55.123Z,101197.34
2022-11-20T12:38:39.595Z,101186.53
2022-11-20T12:41:38.817Z,101177.75
2022-11-20T12:45:11.598Z,101178.22
2022-11-20T12:48:00.937Z,101170.88
2022-11-20T12:54:03.600Z,101167.59
2022-11-20T12:57:03.474Z,101165.69
2022-11-20T12:59:36.052Z,101159.63
2022-11-20T13:02:47.565Z,101171.00
2022-11-20T13:05:33.278Z,101155.75
2022-11-20T13:08:02.042Z,101167.97
2022-11-20T13:10:38.117Z,101161.69
2022-11-20T13:13:15.699Z,101159.88
2022-11-20T13:16:01.967Z,101154.91
2022-11-20T13:18:40.241Z,101160.34
2022-11-20T13:21:18.842Z,101150.44
2022-11-20T13:23:45.282Z,101142.03
2022-11-20T13:26:22.275Z,101133.44
2022-11-20T13:29:01.083Z,101127.53
2022-11-20T13:31:32.291Z,101099.53
2022-11-20T13:34:02.310Z,101116.19
2022-11-20T13:36:33.440Z,101100.88
2022-11-20T13:39:00.224Z,101122.47
2022-11-20T13:41:35.090Z,101123.06
2022-11-20T13:44:10.646Z,101117.09
2022-11-20T13:46:45.754Z,101119.75
2022-11-20T13:49:26.853Z,101105.06
2022-11-20T13:52:18.844Z,101108.19
2022-11-20T13:55:12.702Z,101117.38
2022-11-20T13:58:05.230Z,101111.56
2022-11-20T14:00:33.825Z,101100.41
2022-11-20T14:03:06.304Z,101103.78
2022-11-20T14:05:37.369Z,101102.81
2022-11-20T14:08:14.287Z,101096.75
2022-11-20T14:10:40.772Z,101102.94
2022-11-20T14:13:21.044Z,101090.25
2022-11-20T14:15:47.487Z,101056.22
2022-11-20T14:18:20.024Z,101054.53
2022-11-20T14:20:47.492Z,101092.91
2022-11-20T14:23:14.027Z,101081.06
2022-11-20T14:25:45.830Z,101092.41
2022-11-20T14:28:22.472Z,101060.53
2022-11-20T14:30:49.508Z,101088.88
2022-11-20T14:33:16.348Z,101074.19
2022-11-20T14:35:48.856Z,101077.94
2022-11-20T14:38:17.982Z,101064.91
2022-11-20T14:40:44.410Z,101050.94
2022-11-20T14:43:38.622Z,101061.53
2022-11-20T14:46:08.515Z,101053.44
2022-11-20T14:48:39.946Z,101048.84
2022-11-20T14:51:06.557Z,101057.53
2022-11-20T14:53:32.909Z,101029.88
2022-11-20T14:56:01.465Z,101034.97
2022-11-20T14:58:34.203Z,101040.47
2022-11-20T15:01:03.520Z,101036.13
2022-11-20T15:03:38.130Z,101032.28
2022-11-20T15:06:11.438Z,101032.19
2022-11-20T15:08:38.222Z,101020.19
2022-11-20T15:11:18.990Z,101032.44
2022-11-20T15:13:45.454Z,101021.75
2022-11-20T15:16:19.775Z,100998.19
2022-11-20T15:18:46.237Z,101014.91
2022-11-20T15:21:17.997Z,101022.25
2022-11-20T15:23:45.020Z,101016.72
2022-11-20T15:26:19.443Z,101015.03
2022-11-20T15:28:48.584Z,100993.91
2022-11-20T15:31:20.303Z,101020.31
2022-11-20T15:33:47.328Z,101023.16
2022-11-20T15:36:13.727Z,101014.31
2022-11-20T15:38:40.313Z,101007.72
2022-11-20T15:41:07.282Z,101007.72
2022-11-20T15:43:33.900Z,101002.53
2022-11-20T15:46:04.125Z,101004.94
2022-11-20T15:48:35.342Z,100980.47
2022-11-20T15:51:17.614Z,101002.75
2022-11-20T15:53:43.984Z,100961.47
2022-11-20T15:56:12.889Z,100955.34
2022-11-20T15:58:39.872Z,100977.91
2022-11-20T16:01:06.617Z,100974.53
2022-11-20T16:03:32.979Z,100983.50
2022-11-20T16:05:59.306Z,100973.72
2022-11-20T16:08:25.720Z,100972.16
2022-11-20T16:10:52.042Z,100964.78
2022-11-20T16:13:37.687Z,100958.03
2022-11-20T16:16:07.495Z,100947.75
2022-11-20T16:18:34.486Z,100943.16
2022-11-20T16:21:01.099Z,100949.94
2022-11-20T16:23:27.500Z,100939.34
2022-11-20T16:25:53.861Z,100929.44
2022-11-20T16:28:20.566Z,100940.66
2022-11-20T16:30:47.195Z,100941.59
2022-11-20T16:33:16.630Z,100947.00
2022-11-20T16:35:43.117Z,100923.63
2022-11-20T16:38:09.542Z,100944.88
2022-11-20T16:40:35.987Z,100953.53
2022-11-20T16:43:11.538Z,100957.50
2022-11-20T16:45:45.092Z,100959.63
2022-11-20T16:48:13.732Z,100951.44
2022-11-20T16:50:48.463Z,100954.72
2022-11-20T16:53:15.192Z,100949.16
2022-11-20T16:55:41.581Z,100929.69
2022-11-20T16:58:07.988Z,100937.16
2022-11-20T17:00:41.280Z,100943.91
2022-11-20T17:03:07.948Z,100929.38
2022-11-20T17:05:35.517Z,100952.09
2022-11-20T17:08:02.398Z,100950.00
2022-11-20T17:10:29.124Z,100933.88
2022-11-20T17:12:55.500Z,100926.53
2022-11-20T17:15:21.990Z,100932.94
2022-11-20T17:17:48.332Z,100927.03
2022-11-20T17:20:14.709Z,100917.59
2022-11-20T17:22:41.113Z,100902.03
2022-11-20T17:25:07.826Z,100930.97
2022-11-20T17:27:34.189Z,100916.59
2022-11-20T17:30:00.596Z,100925.28
2022-11-20T17:32:26.973Z,100941.56
2022-11-20T17:34:53.333Z,100928.78
2022-11-20T17:37:19.799Z,100926.94
2022-11-20T17:39:46.822Z,100918.50
2022-11-20T17:42:29.458Z,100916.81
2022-11-20T17:44:58.533Z,100887.06
2022-11-20T17:47:25.341Z,100907.53
2022-11-20T17:49:51.718Z,100900.44
2022-11-20T17:52:18.093Z,100870.09
2022-11-20T17:54:44.461Z,100889.00
2022-11-20T17:57:29.393Z,100892.84
2022-11-20T17:59:55.759Z,100885.31
2022-11-20T18:02:22.112Z,100884.13
2022-11-20T18:04:48.479Z,100862.91
2022-11-20T18:07:14.892Z,100850.63
2022-11-20T18:09:41.291Z,100847.50
2022-11-20T18:12:07.713Z,100837.00
2022-11-20T18:14:36.193Z,100843.00
2022-11-20T18:17:08.128Z,100853.91
2022-11-20T18:19:42.595Z,100848.66
2022-11-20T18:22:19.528Z,100851.41
2022-11-20T18:24:46.194Z,100853.72
2022-11-20T18:27:19.197Z,100847.81
2022-11-20T18:29:48.506Z,100848.03
2022-11-20T18:32:14.945Z,100845.28
2022-11-20T18:34:41.315Z,100845.06
2022-11-20T18:37:09.728Z,100831.94
2022-11-20T18:39:36.605Z,100819.41
2022-11-20T18:42:22.138Z,100796.03
2022-11-20T18:44:51.231Z,100823.53
2022-11-20T18:47:24.291Z,100819.19
2022-11-20T18:49:53.320Z,100819.91
2022-11-20T18:52:28.047Z,100823.78
2022-11-20T18:54:55.221Z,100822.31
2022-11-20T18:57:25.034Z,100818.47
2022-11-20T18:59:51.513Z,100807.19
2022-11-20T19:02:20.151Z,100814.88
2022-11-20T19:04:47.091Z,100821.50
2022-11-20T19:07:14.908Z,100816.84
2022-11-20T19:09:43.206Z,100819.16
2022-11-20T19:12:11.749Z,100817.81
2022-11-20T19:14:38.502Z,100823.31
2022-11-20T19:17:06.733Z,100819.00
2022-11-20T19:19:36.066Z,100818.75
2022-11-20T19:22:02.721Z,100820.44
2022-11-20T19:24:29.096Z,100818.53
2022-11-20T19:26:56.283Z,100815.75
2022-11-20T19:29:24.454Z,100817.69
2022-11-20T19:31:51.157Z,100786.84
2022-11-20T19:34:17.624Z,100812.88
2022-11-20T19:36:45.098Z,100819.22
2022-11-20T19:39:12.108Z,100822.59
2022-11-20T19:41:40.210Z,100821.50
2022-11-20T19:44:13.863Z,100816.94
2022-11-20T19:46:41.122Z,100827.41
2022-11-20T19:49:10.191Z,100818.72
2022-11-20T19:51:38.824Z,100830.44
2022-11-20T19:54:05.679Z,100814.88
2022-11-20T19:56:33.481Z,100824.28
2022-11-20T19:59:00.818Z,100831.94
2022-11-20T20:01:30.202Z,100829.03
2022-11-20T20:04:01.322Z,100827.72
2022-11-20T20:06:28.833Z,100817.28
2022-11-20T20:08:57.512Z,100823.59
2022-11-20T20:11:25.812Z,100814.81
2022-11-20T20:13:52.364Z,100827.78
2022-11-20T20:16:21.673Z,100830.97
2022-11-20T20:18:48.345Z,100783.69
2022-11-20T20:21:18.493Z,100803.84
2022-11-20T20:23:45.542Z,100797.19
2022-11-20T20:26:12.040Z,100819.75
2022-11-20T20:28:38.665Z,100808.06
2022-11-20T20:31:10.257Z,100820.13
2022-11-20T20:33:38.276Z,100817.00
2022-11-20T20:36:05.697Z,100816.75
2022-11-20T20:38:32.589Z,100812.53
2022-11-20T20:40:59.021Z,100811.47
2022-11-20T20:43:25.772Z,100819.91
2022-11-20T20:45:52.737Z,100820.59
2022-11-20T20:48:21.694Z,100824.94
2022-11-20T20:51:14.588Z,100808.31
2022-11-20T20:53:41.065Z,100825.13
2022-11-20T20:56:07.549Z,100817.66
2022-11-20T20:58:33.928Z,100825.59
2022-11-20T21:01:10.000Z,100824.19
2022-11-20T21:03:37.487Z,100825.88
2022-11-20T21:06:05.464Z,100816.75
2022-11-20T21:08:32.135Z,100817.28
2022-11-20T21:11:04.487Z,100798.81
2022-11-20T21:13:31.948Z,100817.28
2022-11-20T21:15:58.492Z,100803.97
2022-11-20T21:18:25.834Z,100803.13
2022-11-20T21:21:11.267Z,100776.19
2022-11-20T21:23:37.946Z,100793.66
2022-11-20T21:26:07.058Z,100800.88
2022-11-20T21:28:35.032Z,100809.78
2022-11-20T21:31:12.871Z,100808.78
2022-11-20T21:33:44.565Z,100812.38
2022-11-20T21:36:14.094Z,100814.56
2022-11-20T21:38:40.604Z,100813.59
2022-11-20T21:41:09.014Z,100811.91
2022-11-20T21:43:35.935Z,100821.44
2022-11-20T21:46:10.406Z,100813.47
2022-11-20T21:48:39.713Z,100812.81
2022-11-20T21:51:08.788Z,100816.75
2022-11-20T21:53:35.614Z,100806.13
2022-11-20T21:56:04.187Z,100802.19
2022-11-20T21:58:31.040Z,100801.56
2022-11-20T22:00:57.654Z,100795.00
2022-11-20T22:03:24.070Z,100798.47
2022-11-20T22:05:55.488Z,100797.53
2022-11-20T22:08:22.479Z,100793.16
2022-11-20T22:11:02.165Z,100796.84
2022-11-20T22:13:47.861Z,100801.13
2022-11-20T22:16:14.925Z,100749.81
2022-11-20T22:18:43.375Z,100777.25
2022-11-20T22:21:09.752Z,100775.31
2022-11-20T22:23:36.934Z,100803.63
2022-11-20T22:26:09.187Z,100810.91
2022-11-20T22:28:36.477Z,100820.19
2022-11-20T22:31:04.848Z,100811.16
2022-11-20T22:33:32.393Z,100807.47
2022-11-20T22:36:03.467Z,100797.16
2022-11-20T22:38:31.417Z,100765.13
2022-11-20T22:41:07.817Z,100811.03
2022-11-20T22:43:34.832Z,100802.34
2022-11-20T22:46:05.766Z,100781.84
2022-11-20T22:48:33.855Z,100827.53
2022-11-20T22:51:06.294Z,100836.31
2022-11-20T22:53:33.621Z,100803.38
2022-11-20T22:56:01.478Z,100836.50
2022-11-20T22:58:31.630Z,100846.63
2022-11-20T23:01:17.059Z,100842.84
2022-11-20T23:03:46.062Z,100852.56
2022-11-20T23:06:13.100Z,100855.47
2022-11-20T23:08:40.555Z,100850.81
2022-11-20T23:11:18.666Z,100825.84
2022-11-20T23:13:46.310Z,100841.34
2022-11-20T23:16:18.181Z,100839.44
2022-11-20T23:18:44.875Z,100829.44
2022-11-20T23:21:16.790Z,100833.47
2022-11-20T23:23:47.248Z,100820.53
2022-11-20T23:26:15.326Z,100827.28
2022-11-20T23:28:42.376Z,100837.63
2022-11-20T23:31:10.513Z,100834.84
2022-11-20T23:33:38.779Z,100817.69
2022-11-20T23:36:06.611Z,100795.13
2022-11-20T23:38:33.426Z,100831.88
2022-11-20T23:41:00.162Z,100832.50
2022-11-20T23:43:26.603Z,100842.97
2022-11-20T23:45:55.491Z,100838.81
2022-11-20T23:48:24.450Z,100845.63
2022-11-20T23:50:51.271Z,100835.47
2022-11-20T23:53:18.896Z,100817.19
2022-11-20T23:55:50.779Z,100850.13
2022-11-20T23:58:17.568Z,100848.53
